Time;durP1;ratioP1;P1;durP2;ratioP2;P2;SDS_P1;SDS_P2;PMS_P1;PMS_P2;Temp;Humidity;BMP_temperature;BMP_pressure;BME280_temperature;BME280_humidity;BME280_pressure;Samples;Min_cycle;Max_cycle;Signal;HPM_P1;HPM_P2
2021/09/23 00:00:12;;;;;;;38.42;24.58;;;;;;;;;;5022103;28;20236;-71
2021/09/23 00:05:13;;;;;;;41.58;24.75;;;;;;;;;;5019770;28;20229;-72
2021/09/23 00:07:42;;;;;;;34.50;23.27;;;;;;;;;;5027959;28;20178;-72
2021/09/23 00:10:09;;;;;;;36.53;25.33;;;;;;;;;;5020416;28;20205;-72
2021/09/23 00:12:36;;;;;;;33.92;23.00;;;;;;;;;;5026517;28;20189;-72
2021/09/23 00:15:03;;;;;;;39.00;26.10;;;;;;;;;;5021027;28;20224;-72
2021/09/23 00:17:29;;;;;;;40.97;25.60;;;;;;;;;;5026792;28;20229;-72
2021/09/23 00:19:54;;;;;;;40.00;26.75;;;;;;;;;;5018853;28;20189;-72
2021/09/23 00:22:19;;;;;;;39.42;25.20;;;;;;;;;;5029712;28;20200;-71
2021/09/23 00:24:45;;;;;;;42.00;26.20;;;;;;;;;;5026081;28;20605;-71
2021/09/23 00:27:10;;;;;;;41.35;26.10;;;;;;;;;;5019595;28;20198;-71
2021/09/23 00:29:36;;;;;;;40.28;26.05;;;;;;;;;;5027481;28;20192;-70
2021/09/23 00:32:02;;;;;;;42.78;27.33;;;;;;;;;;5016169;28;20563;-71
2021/09/23 00:34:27;;;;;;;38.38;25.25;;;;;;;;;;5028021;28;20197;-72
2021/09/23 00:36:53;;;;;;;40.17;26.77;;;;;;;;;;5020132;28;20624;-72
2021/09/23 00:39:21;;;;;;;41.85;25.30;;;;;;;;;;5026962;28;20197;-72
2021/09/23 00:41:47;;;;;;;42.63;26.60;;;;;;;;;;5022068;28;20200;-72
2021/09/23 00:44:18;;;;;;;42.28;27.02;;;;;;;;;;5029110;28;20327;-72
2021/09/23 00:46:46;;;;;;;37.30;25.67;;;;;;;;;;5022484;28;20190;-72
2021/09/23 00:49:11;;;;;;;42.22;27.45;;;;;;;;;;5023320;28;20191;-73
2021/09/23 00:51:38;;;;;;;42.20;26.00;;;;;;;;;;5021014;28;20214;-72
2021/09/23 00:54:03;;;;;;;41.20;26.35;;;;;;;;;;5026133;28;20227;-72
2021/09/23 00:56:29;;;;;;;38.08;26.45;;;;;;;;;;5024868;28;20209;-72
2021/09/23 00:58:54;;;;;;;41.03;26.35;;;;;;;;;;5017537;28;20280;-72
2021/09/23 01:01:20;;;;;;;33.67;25.20;;;;;;;;;;5028649;28;20190;-72
2021/09/23 01:03:45;;;;;;;41.88;26.52;;;;;;;;;;5017129;28;20291;-72
2021/09/23 01:06:10;;;;;;;39.95;26.17;;;;;;;;;;5027627;28;20227;-72
2021/09/23 01:08:39;;;;;;;39.97;26.45;;;;;;;;;;5018484;28;20633;-72
2021/09/23 01:11:05;;;;;;;39.40;26.30;;;;;;;;;;5027138;28;20193;-72
2021/09/23 01:13:30;;;;;;;40.63;26.05;;;;;;;;;;5018607;28;20680;-72
2021/09/23 01:15:56;;;;;;;39.08;25.67;;;;;;;;;;5027149;28;20182;-72
2021/09/23 01:18:22;;;;;;;35.92;24.85;;;;;;;;;;5014616;28;20669;-72
2021/09/23 01:20:48;;;;;;;37.35;24.45;;;;;;;;;;5025709;28;20190;-72
2021/09/23 01:23:13;;;;;;;35.15;24.80;;;;;;;;;;5019109;28;20178;-72
2021/09/23 01:25:39;;;;;;;36.67;25.48;;;;;;;;;;5027529;28;20190;-72
2021/09/23 01:28:05;;;;;;;36.70;25.27;;;;;;;;;;5027904;28;20285;-72
2021/09/23 01:30:31;;;;;;;39.05;25.88;;;;;;;;;;5019365;28;20205;-72
2021/09/23 01:32:56;;;;;;;37.88;24.83;;;;;;;;;;5029450;28;20200;-71
2021/09/23 01:35:22;;;;;;;37.80;23.65;;;;;;;;;;5017106;28;20564;-72
2021/09/23 01:37:47;;;;;;;32.22;22.02;;;;;;;;;;5024981;28;20189;-71
2021/09/23 01:40:13;;;;;;;39.08;24.40;;;;;;;;;;5015409;28;20758;-72
2021/09/23 01:42:42;;;;;;;40.13;25.20;;;;;;;;;;5025911;28;20269;-73
2021/09/23 01:45:08;;;;;;;41.53;24.70;;;;;;;;;;5017265;28;20186;-72
2021/09/23 01:47:33;;;;;;;40.63;25.40;;;;;;;;;;5028643;28;20302;-72
2021/09/23 01:50:00;;;;;;;36.05;23.42;;;;;;;;;;5017911;28;20273;-72
2021/09/23 01:52:25;;;;;;;35.63;23.33;;;;;;;;;;5027272;28;20285;-72
2021/09/23 01:54:51;;;;;;;34.67;22.92;;;;;;;;;;5017478;28;20289;-71
2021/09/23 01:57:17;;;;;;;42.90;25.80;;;;;;;;;;5026841;28;20720;-71
2021/09/23 01:59:42;;;;;;;34.22;23.13;;;;;;;;;;5025395;28;20224;-71
2021/09/23 02:02:07;;;;;;;36.10;23.40;;;;;;;;;;5019028;28;20284;-70
2021/09/23 02:04:33;;;;;;;40.15;24.42;;;;;;;;;;5023648;28;22132;-71
2021/09/23 02:06:58;;;;;;;36.88;25.20;;;;;;;;;;5018883;28;20212;-71
2021/09/23 02:09:23;;;;;;;36.78;24.30;;;;;;;;;;5024446;28;20192;-71
2021/09/23 02:11:49;;;;;;;37.60;26.27;;;;;;;;;;5019021;28;20212;-71
2021/09/23 02:14:14;;;;;;;38.60;25.85;;;;;;;;;;5022891;28;20703;-72
2021/09/23 02:16:39;;;;;;;35.15;24.25;;;;;;;;;;5019533;28;20697;-71
2021/09/23 02:19:05;;;;;;;41.17;25.77;;;;;;;;;;5026152;28;20189;-72
2021/09/23 02:21:30;;;;;;;40.67;25.15;;;;;;;;;;5016679;28;20281;-72
2021/09/23 02:23:55;;;;;;;40.00;27.33;;;;;;;;;;5025328;28;20198;-72
2021/09/23 02:26:21;;;;;;;40.25;25.33;;;;;;;;;;5022101;28;20192;-72
2021/09/23 02:28:46;;;;;;;42.13;26.77;;;;;;;;;;5013695;28;20563;-72
2021/09/23 02:31:12;;;;;;;39.47;26.52;;;;;;;;;;5027024;28;20200;-71
2021/09/23 02:33:37;;;;;;;41.28;25.23;;;;;;;;;;5017719;28;20189;-71
2021/09/23 02:36:03;;;;;;;46.28;29.02;;;;;;;;;;5027694;28;20626;-71
2021/09/23 02:38:29;;;;;;;47.88;28.73;;;;;;;;;;5021096;28;20227;-71
2021/09/23 02:40:55;;;;;;;42.75;26.35;;;;;;;;;;5031276;28;20189;-72
2021/09/23 02:43:20;;;;;;;39.25;26.90;;;;;;;;;;5020910;28;20263;-71
2021/09/23 02:45:46;;;;;;;44.67;29.90;;;;;;;;;;5032158;28;21930;-71
2021/09/23 02:48:11;;;;;;;47.63;29.52;;;;;;;;;;5019346;28;20660;-72
2021/09/23 02:50:36;;;;;;;48.42;29.38;;;;;;;;;;5030498;28;20208;-72
2021/09/23 02:53:02;;;;;;;44.00;29.05;;;;;;;;;;5020815;28;20233;-72
2021/09/23 02:55:27;;;;;;;44.17;27.77;;;;;;;;;;5031514;28;20200;-72
2021/09/23 02:57:52;;;;;;;46.65;28.17;;;;;;;;;;5028738;28;20218;-71
2021/09/23 03:00:19;;;;;;;43.13;28.95;;;;;;;;;;5019448;28;20282;-72
2021/09/23 03:02:45;;;;;;;41.03;26.75;;;;;;;;;;5030516;28;20190;-72
2021/09/23 03:05:10;;;;;;;48.47;30.25;;;;;;;;;;5018771;28;20599;-72
2021/09/23 03:07:36;;;;;;;47.13;28.77;;;;;;;;;;5029842;28;20629;-72
2021/09/23 03:10:02;;;;;;;47.50;29.95;;;;;;;;;;5020366;28;20203;-72
2021/09/23 03:12:27;;;;;;;41.90;28.95;;;;;;;;;;5029203;28;20251;-71
2021/09/23 03:14:52;;;;;;;41.28;28.05;;;;;;;;;;5019445;28;20571;-72
2021/09/23 03:17:18;;;;;;;44.80;27.42;;;;;;;;;;5027041;28;20788;-71
2021/09/23 03:19:43;;;;;;;48.25;29.17;;;;;;;;;;5022957;28;20654;-72
2021/09/23 03:22:10;;;;;;;44.45;28.30;;;;;;;;;;5027601;28;21996;-72
2021/09/23 03:24:35;;;;;;;47.00;29.63;;;;;;;;;;5019349;28;20268;-71
2021/09/23 03:27:01;;;;;;;45.45;29.35;;;;;;;;;;5027517;28;20312;-72
2021/09/23 03:29:26;;;;;;;43.03;28.30;;;;;;;;;;5024297;28;20201;-72
2021/09/23 03:31:51;;;;;;;49.38;29.65;;;;;;;;;;5021966;28;20189;-71
2021/09/23 03:34:17;;;;;;;46.92;29.10;;;;;;;;;;5025025;28;21396;-71
2021/09/23 03:36:42;;;;;;;43.33;29.52;;;;;;;;;;5020267;28;20201;-72
2021/09/23 03:39:07;;;;;;;47.15;29.60;;;;;;;;;;5027326;28;20299;-72
2021/09/23 03:41:33;;;;;;;47.88;30.10;;;;;;;;;;5023084;28;20196;-72
2021/09/23 03:43:59;;;;;;;48.25;29.80;;;;;;;;;;5027612;28;20252;-72
2021/09/23 03:46:24;;;;;;;48.80;30.38;;;;;;;;;;5017864;28;20193;-71
2021/09/23 03:48:50;;;;;;;49.45;30.15;;;;;;;;;;5026718;28;20200;-72
2021/09/23 03:51:15;;;;;;;51.78;30.20;;;;;;;;;;5022323;28;20286;-72
2021/09/23 03:53:42;;;;;;;45.25;30.38;;;;;;;;;;5028024;28;20214;-72
2021/09/23 03:56:12;;;;;;;47.33;29.70;;;;;;;;;;5025896;28;20190;-71
2021/09/23 03:58:38;;;;;;;47.85;30.58;;;;;;;;;;5025444;28;20209;-71
2021/09/23 04:01:03;;;;;;;52.33;32.65;;;;;;;;;;5029772;28;20589;-72
2021/09/23 04:03:31;;;;;;;50.63;31.05;;;;;;;;;;5019613;28;20348;-72
2021/09/23 04:05:56;;;;;;;51.45;32.17;;;;;;;;;;5026343;28;20185;-72
2021/09/23 04:08:21;;;;;;;57.33;33.28;;;;;;;;;;5018627;28;20619;-72
2021/09/23 04:10:47;;;;;;;50.28;31.35;;;;;;;;;;5027868;28;20272;-72
2021/09/23 04:13:13;;;;;;;42.53;28.75;;;;;;;;;;5021919;28;20304;-71
2021/09/23 04:15:38;;;;;;;48.08;32.38;;;;;;;;;;5028044;28;20182;-72
2021/09/23 04:18:04;;;;;;;48.13;31.85;;;;;;;;;;5019988;28;20217;-72
2021/09/23 04:20:29;;;;;;;57.40;31.92;;;;;;;;;;5027109;28;20186;-72
2021/09/23 04:22:55;;;;;;;52.05;32.25;;;;;;;;;;5018689;28;20197;-71
2021/09/23 04:25:20;;;;;;;46.88;29.40;;;;;;;;;;5024498;28;20551;-71
2021/09/23 04:27:46;;;;;;;55.63;33.28;;;;;;;;;;5023371;28;20638;-72
2021/09/23 04:30:12;;;;;;;53.75;32.75;;;;;;;;;;5016705;28;20205;-71
2021/09/23 04:32:37;;;;;;;50.25;30.63;;;;;;;;;;5024775;28;20178;-71
2021/09/23 04:35:03;;;;;;;56.55;30.83;;;;;;;;;;5018120;28;20190;-71
2021/09/23 04:37:28;;;;;;;51.47;31.92;;;;;;;;;;5026635;28;20205;-71
2021/09/23 04:39:53;;;;;;;50.83;32.25;;;;;;;;;;5016787;28;20217;-71
2021/09/23 04:42:19;;;;;;;54.65;32.05;;;;;;;;;;5027676;28;20520;-71
2021/09/23 04:44:45;;;;;;;57.55;33.60;;;;;;;;;;5014891;28;20204;-72
2021/09/23 04:47:10;;;;;;;48.40;31.77;;;;;;;;;;5024070;28;20216;-72
2021/09/23 04:49:36;;;;;;;58.53;34.13;;;;;;;;;;5019575;28;20222;-73
2021/09/23 04:52:01;;;;;;;52.47;31.58;;;;;;;;;;5025776;28;21119;-72
2021/09/23 04:54:27;;;;;;;57.38;33.45;;;;;;;;;;5017758;28;20836;-72
2021/09/23 04:56:52;;;;;;;52.70;31.92;;;;;;;;;;5026735;28;20209;-72
2021/09/23 04:59:17;;;;;;;54.17;31.45;;;;;;;;;;5023740;28;20186;-72
2021/09/23 05:01:43;;;;;;;52.83;33.58;;;;;;;;;;5019751;28;20209;-72
2021/09/23 05:04:08;;;;;;;52.00;33.28;;;;;;;;;;5023032;28;20742;-72
2021/09/23 05:06:34;;;;;;;56.55;34.03;;;;;;;;;;5017759;28;20182;-72
2021/09/23 05:09:01;;;;;;;56.58;34.63;;;;;;;;;;5024562;28;20257;-72
2021/09/23 05:11:27;;;;;;;54.90;32.72;;;;;;;;;;5014974;28;20597;-72
2021/09/23 05:13:53;;;;;;;56.33;32.88;;;;;;;;;;5024307;28;20992;-72
2021/09/23 05:16:18;;;;;;;54.08;33.47;;;;;;;;;;5014274;28;20209;-71
2021/09/23 05:18:44;;;;;;;55.90;33.65;;;;;;;;;;5023173;28;20591;-71
2021/09/23 05:21:10;;;;;;;52.80;29.67;;;;;;;;;;5017953;28;20193;-72
2021/09/23 05:23:36;;;;;;;58.60;33.50;;;;;;;;;;5026200;28;20233;-72
2021/09/23 05:26:01;;;;;;;58.38;34.70;;;;;;;;;;5024262;28;20198;-72
2021/09/23 05:28:27;;;;;;;56.90;32.95;;;;;;;;;;5014537;28;20182;-72
2021/09/23 05:30:52;;;;;;;52.13;32.10;;;;;;;;;;5023409;28;20556;-72
2021/09/23 05:33:17;;;;;;;54.85;30.95;;;;;;;;;;5016870;28;20556;-72
2021/09/23 05:35:43;;;;;;;53.53;32.15;;;;;;;;;;5022474;28;20200;-72
2021/09/23 05:38:08;;;;;;;54.10;32.20;;;;;;;;;;5014855;28;20660;-72
2021/09/23 05:40:34;;;;;;;54.30;30.30;;;;;;;;;;5024547;28;20186;-72
2021/09/23 05:42:59;;;;;;;61.83;34.65;;;;;;;;;;5020673;28;20559;-72
2021/09/23 05:45:25;;;;;;;54.78;34.05;;;;;;;;;;5026204;28;20250;-72
2021/09/23 05:47:51;;;;;;;61.75;34.63;;;;;;;;;;5019947;28;20181;-72
2021/09/23 05:50:16;;;;;;;55.17;33.40;;;;;;;;;;5023548;28;20197;-72
2021/09/23 05:52:41;;;;;;;57.70;34.50;;;;;;;;;;5018204;28;21544;-72
2021/09/23 05:55:07;;;;;;;57.33;33.65;;;;;;;;;;5020774;28;20189;-72
2021/09/23 05:57:34;;;;;;;57.15;33.92;;;;;;;;;;5027935;28;20209;-72
2021/09/23 06:00:20;;;;;;;58.95;35.30;;;;;;;;;;5015329;28;20667;-76
2021/09/23 06:02:45;;;;;;;57.28;34.13;;;;;;;;;;5024600;28;20189;-72
2021/09/23 06:05:13;;;;;;;53.38;32.75;;;;;;;;;;5011037;28;20233;-72
2021/09/23 06:07:39;;;;;;;53.67;33.45;;;;;;;;;;5024408;28;20186;-73
2021/09/23 06:10:05;;;;;;;57.45;33.20;;;;;;;;;;5014355;28;20235;-72
2021/09/23 06:12:32;;;;;;;58.97;34.42;;;;;;;;;;5020696;28;20404;-72
2021/09/23 06:14:58;;;;;;;55.08;32.92;;;;;;;;;;5014085;28;20198;-72
2021/09/23 06:17:23;;;;;;;55.35;32.30;;;;;;;;;;5028242;28;20827;-72
2021/09/23 06:19:48;;;;;;;57.05;34.03;;;;;;;;;;5016319;28;20590;-73
2021/09/23 06:22:14;;;;;;;52.67;34.20;;;;;;;;;;5026217;28;20228;-72
2021/09/23 06:24:39;;;;;;;66.28;34.83;;;;;;;;;;5012526;28;20625;-72
2021/09/23 06:27:05;;;;;;;49.92;33.22;;;;;;;;;;5027275;28;20196;-72
2021/09/23 06:29:30;;;;;;;60.05;34.80;;;;;;;;;;5018414;28;20254;-73
2021/09/23 06:31:56;;;;;;;60.92;36.20;;;;;;;;;;5023489;28;20634;-72
2021/09/23 06:34:22;;;;;;;55.65;34.40;;;;;;;;;;5025831;28;20190;-72
2021/09/23 06:36:47;;;;;;;58.33;35.60;;;;;;;;;;5015602;28;20213;-72
2021/09/23 06:39:13;;;;;;;56.25;34.88;;;;;;;;;;5026229;28;20692;-73
2021/09/23 06:41:38;;;;;;;56.22;33.40;;;;;;;;;;5016210;28;20235;-72
2021/09/23 06:44:05;;;;;;;58.78;35.78;;;;;;;;;;5029508;28;20181;-72
2021/09/23 06:46:31;;;;;;;58.55;34.75;;;;;;;;;;5017408;28;20190;-72
2021/09/23 06:48:57;;;;;;;63.63;36.40;;;;;;;;;;5028448;28;20280;-72
2021/09/23 06:51:23;;;;;;;54.88;34.88;;;;;;;;;;5018042;28;20194;-73
2021/09/23 06:53:48;;;;;;;55.22;34.58;;;;;;;;;;5028143;28;20189;-73
2021/09/23 06:56:15;;;;;;;55.75;34.65;;;;;;;;;;5017602;28;20193;-73
2021/09/23 06:58:40;;;;;;;53.40;35.10;;;;;;;;;;5027324;28;20220;-73
2021/09/23 07:01:06;;;;;;;57.22;35.13;;;;;;;;;;5015327;28;20197;-72
2021/09/23 07:03:31;;;;;;;61.63;34.28;;;;;;;;;;5022932;28;20194;-73
2021/09/23 07:05:56;;;;;;;57.10;35.25;;;;;;;;;;5027049;28;20273;-74
2021/09/23 07:08:22;;;;;;;54.85;36.22;;;;;;;;;;5017832;28;21935;-72
2021/09/23 07:10:49;;;;;;;57.90;34.60;;;;;;;;;;5028076;28;20573;-73
2021/09/23 07:13:15;;;;;;;55.35;34.63;;;;;;;;;;5019627;28;20197;-73
2021/09/23 07:15:40;;;;;;;55.78;35.65;;;;;;;;;;5024665;28;20202;-72
2021/09/23 07:18:06;;;;;;;53.30;33.30;;;;;;;;;;5020088;28;20300;-72
2021/09/23 07:20:31;;;;;;;61.33;37.55;;;;;;;;;;5027534;28;20650;-73
2021/09/23 07:22:57;;;;;;;59.97;34.92;;;;;;;;;;5024342;28;20269;-72
2021/09/23 07:25:23;;;;;;;63.88;37.38;;;;;;;;;;5028668;28;20213;-72
2021/09/23 07:27:50;;;;;;;57.78;37.40;;;;;;;;;;5021431;28;20189;-72
2021/09/23 07:30:16;;;;;;;56.85;37.28;;;;;;;;;;5028208;28;20300;-72
2021/09/23 07:32:42;;;;;;;55.45;35.80;;;;;;;;;;5030800;28;20208;-72
2021/09/23 07:35:07;;;;;;;56.25;35.13;;;;;;;;;;5027803;28;20178;-72
2021/09/23 07:37:33;;;;;;;56.33;36.45;;;;;;;;;;5029995;28;20278;-72
2021/09/23 07:39:58;;;;;;;46.10;30.73;;;;;;;;;;5021078;28;20224;-72
2021/09/23 07:42:24;;;;;;;51.70;35.42;;;;;;;;;;5031667;28;20192;-72
2021/09/23 07:44:49;;;;;;;54.97;35.20;;;;;;;;;;5021237;28;21371;-72
2021/09/23 07:47:15;;;;;;;56.42;35.25;;;;;;;;;;5029159;28;20186;-72
2021/09/23 07:49:40;;;;;;;55.58;34.47;;;;;;;;;;5021886;28;20243;-73
2021/09/23 07:52:06;;;;;;;53.38;35.63;;;;;;;;;;5030677;28;20201;-72
2021/09/23 07:54:32;;;;;;;58.75;35.70;;;;;;;;;;5023085;28;20243;-72
2021/09/23 07:56:57;;;;;;;51.42;33.22;;;;;;;;;;5031898;28;21047;-73
2021/09/23 07:59:23;;;;;;;52.88;33.38;;;;;;;;;;5019658;28;20194;-73
2021/09/23 08:01:48;;;;;;;56.83;34.70;;;;;;;;;;5030492;28;20185;-72
2021/09/23 08:04:14;;;;;;;53.45;33.58;;;;;;;;;;5028818;28;20229;-72
2021/09/23 08:06:40;;;;;;;54.63;32.53;;;;;;;;;;5020234;28;20174;-72
2021/09/23 08:09:05;;;;;;;48.67;32.15;;;;;;;;;;5031836;28;20197;-72
2021/09/23 08:11:31;;;;;;;46.45;31.13;;;;;;;;;;5023651;28;20190;-72
2021/09/23 08:13:56;;;;;;;52.63;33.03;;;;;;;;;;5031846;28;20196;-72
2021/09/23 08:16:22;;;;;;;48.53;30.75;;;;;;;;;;5024101;28;20206;-72
2021/09/23 08:18:47;;;;;;;42.90;28.20;;;;;;;;;;5028763;28;20407;-71
2021/09/23 08:21:13;;;;;;;48.00;30.90;;;;;;;;;;5023547;28;20185;-72
2021/09/23 08:23:38;;;;;;;49.08;30.50;;;;;;;;;;5028546;28;20212;-70
2021/09/23 08:26:04;;;;;;;41.40;28.27;;;;;;;;;;5022304;28;20204;-71
2021/09/23 08:28:32;;;;;;;46.25;30.17;;;;;;;;;;5028165;28;20193;-72
2021/09/23 08:30:58;;;;;;;48.85;30.92;;;;;;;;;;5020680;28;20182;-72
2021/09/23 08:33:24;;;;;;;49.88;30.48;;;;;;;;;;5029861;28;20193;-72
2021/09/23 08:35:49;;;;;;;42.65;29.92;;;;;;;;;;5028919;28;20182;-72
2021/09/23 08:38:19;;;;;;;44.15;30.02;;;;;;;;;;5024232;28;21535;-73
2021/09/23 08:40:47;;;;;;;43.65;28.52;;;;;;;;;;5030115;28;20623;-72
2021/09/23 08:43:13;;;;;;;40.58;28.95;;;;;;;;;;5020595;28;20272;-72
2021/09/23 08:45:38;;;;;;;39.95;27.25;;;;;;;;;;5030020;28;20194;-71
2021/09/23 08:48:05;;;;;;;41.40;27.38;;;;;;;;;;5024090;28;20284;-73
2021/09/23 08:50:30;;;;;;;40.65;27.70;;;;;;;;;;5027452;28;20597;-74
2021/09/23 08:52:56;;;;;;;39.92;27.95;;;;;;;;;;5020350;28;20186;-71
2021/09/23 08:55:24;;;;;;;42.05;26.92;;;;;;;;;;5029680;28;20261;-72
2021/09/23 08:57:50;;;;;;;41.10;27.23;;;;;;;;;;5022839;28;20561;-72
2021/09/23 09:00:16;;;;;;;41.33;26.23;;;;;;;;;;5028138;28;20181;-72
2021/09/23 09:02:41;;;;;;;39.67;25.42;;;;;;;;;;5019873;28;20189;-72
2021/09/23 09:05:15;;;;;;;37.78;26.05;;;;;;;;;;5031137;28;20229;-71
2021/09/23 09:07:40;;;;;;;41.83;25.92;;;;;;;;;;5030124;28;20557;-71
2021/09/23 09:10:08;;;;;;;38.85;26.77;;;;;;;;;;5022559;28;20196;-72
2021/09/23 09:12:35;;;;;;;37.50;25.77;;;;;;;;;;5027786;28;20189;-71
2021/09/23 09:15:01;;;;;;;38.47;25.83;;;;;;;;;;5021984;28;20620;-71
2021/09/23 09:17:34;;;;;;;34.03;25.60;;;;;;;;;;5026015;28;20229;-71
2021/09/23 09:20:02;;;;;;;36.92;25.60;;;;;;;;;;5021251;28;20573;-71
2021/09/23 09:22:29;;;;;;;40.65;25.63;;;;;;;;;;5027996;28;20625;-71
2021/09/23 09:24:57;;;;;;;36.60;24.65;;;;;;;;;;5019861;28;20983;-71
2021/09/23 09:27:37;;;;;;;35.22;24.02;;;;;;;;;;5031254;28;20621;-71
2021/09/23 09:30:12;;;;;;;31.20;22.25;;;;;;;;;;5021746;28;20573;-71
2021/09/23 09:32:40;;;;;;;35.20;22.63;;;;;;;;;;5030722;28;20602;-72
2021/09/23 09:35:08;;;;;;;34.70;22.65;;;;;;;;;;5022626;28;20222;-70
2021/09/23 09:37:34;;;;;;;30.13;19.33;;;;;;;;;;5031707;28;20202;-71
2021/09/23 09:40:00;;;;;;;30.17;18.67;;;;;;;;;;5021230;28;20289;-71
2021/09/23 09:42:27;;;;;;;25.33;17.30;;;;;;;;;;5029080;28;20546;-72
2021/09/23 09:44:57;;;;;;;24.70;16.73;;;;;;;;;;5019510;28;20192;-73
2021/09/23 09:47:35;;;;;;;26.10;17.58;;;;;;;;;;5027753;28;20426;-72
2021/09/23 09:50:15;;;;;;;26.20;16.50;;;;;;;;;;5021861;28;20189;-72
2021/09/23 09:52:49;;;;;;;25.30;16.67;;;;;;;;;;5025891;28;20190;-72
2021/09/23 09:55:14;;;;;;;23.98;16.83;;;;;;;;;;5023921;28;20204;-72
2021/09/23 09:57:44;;;;;;;22.42;15.55;;;;;;;;;;5028016;28;20299;-72
2021/09/23 10:00:11;;;;;;;26.85;15.63;;;;;;;;;;5030065;28;20193;-71
2021/09/23 10:02:37;;;;;;;20.42;14.82;;;;;;;;;;5019974;28;20206;-72
2021/09/23 10:05:02;;;;;;;20.58;14.35;;;;;;;;;;5027720;28;20222;-72
2021/09/23 10:07:28;;;;;;;18.38;14.40;;;;;;;;;;5017507;28;20190;-71
2021/09/23 10:09:55;;;;;;;20.85;13.75;;;;;;;;;;5030796;28;20699;-73
2021/09/23 10:12:22;;;;;;;23.17;14.32;;;;;;;;;;5021424;28;20197;-73
2021/09/23 10:14:49;;;;;;;23.35;14.00;;;;;;;;;;5028461;28;20559;-71
2021/09/23 10:17:15;;;;;;;26.40;14.15;;;;;;;;;;5018463;28;20463;-72
2021/09/23 10:19:43;;;;;;;22.55;14.82;;;;;;;;;;5029629;28;20251;-72
2021/09/23 10:22:11;;;;;;;23.95;14.88;;;;;;;;;;5022763;28;20212;-72
2021/09/23 10:24:40;;;;;;;24.98;16.17;;;;;;;;;;5027044;28;20273;-72
2021/09/23 10:27:57;;;;;;;22.15;14.75;;;;;;;;;;5020036;28;20519;-72
2021/09/23 10:29:53;;;;;;;23.15;15.38;;;;;;;;;;5028698;28;20281;-71
2021/09/23 10:32:19;;;;;;;21.42;14.23;;;;;;;;;;5020304;28;20197;-73
2021/09/23 10:34:48;;;;;;;22.27;14.90;;;;;;;;;;5029756;28;20646;-72
2021/09/23 10:37:15;;;;;;;25.38;14.50;;;;;;;;;;5026815;28;20209;-72
2021/09/23 10:39:41;;;;;;;17.92;14.18;;;;;;;;;;5020022;28;20292;-71
2021/09/23 10:42:11;;;;;;;20.05;14.55;;;;;;;;;;5029709;28;20198;-72
2021/09/23 10:44:38;;;;;;;20.65;14.23;;;;;;;;;;5017392;28;20181;-71
2021/09/23 10:47:06;;;;;;;19.40;14.18;;;;;;;;;;5027769;28;20331;-71
2021/09/23 10:49:31;;;;;;;25.23;14.45;;;;;;;;;;5018345;28;20267;-71
2021/09/23 10:51:56;;;;;;;22.52;15.95;;;;;;;;;;5029728;28;20581;-72
2021/09/23 10:54:23;;;;;;;20.63;15.18;;;;;;;;;;5016726;28;20189;-72
2021/09/23 10:56:50;;;;;;;20.05;15.75;;;;;;;;;;5028923;28;20213;-72
2021/09/23 10:59:17;;;;;;;25.35;16.15;;;;;;;;;;5024837;28;20200;-72
2021/09/23 11:01:45;;;;;;;23.15;15.75;;;;;;;;;;5031370;28;20185;-72
2021/09/23 11:04:11;;;;;;;23.80;13.88;;;;;;;;;;5020132;28;20316;-71
2021/09/23 11:06:40;;;;;;;25.10;12.93;;;;;;;;;;5032550;28;20201;-72
2021/09/23 11:09:20;;;;;;;19.33;12.15;;;;;;;;;;5022543;28;20194;-72
2021/09/23 11:11:48;;;;;;;18.40;11.23;;;;;;;;;;5031965;28;20600;-72
2021/09/23 11:14:15;;;;;;;15.50;11.95;;;;;;;;;;5031926;28;20205;-74
2021/09/23 11:16:45;;;;;;;22.23;10.40;;;;;;;;;;5024635;28;20206;-73
2021/09/23 11:19:10;;;;;;;14.15;8.77;;;;;;;;;;5033791;28;20190;-74
2021/09/23 11:21:37;;;;;;;14.98;8.73;;;;;;;;;;5022760;28;20215;-73
2021/09/23 11:24:03;;;;;;;9.75;6.68;;;;;;;;;;5030613;28;20201;-72
2021/09/23 11:26:29;;;;;;;11.27;5.93;;;;;;;;;;5021386;28;21513;-71
2021/09/23 11:28:55;;;;;;;11.85;5.05;;;;;;;;;;5032036;28;20235;-73
2021/09/23 11:31:21;;;;;;;8.60;4.80;;;;;;;;;;5023493;28;20194;-74
2021/09/23 11:33:51;;;;;;;9.43;3.95;;;;;;;;;;5031191;28;20694;-74
2021/09/23 11:36:18;;;;;;;5.68;3.30;;;;;;;;;;5023152;28;20764;-73
2021/09/23 11:38:43;;;;;;;11.02;3.10;;;;;;;;;;5031198;28;20280;-74
2021/09/23 11:41:09;;;;;;;8.18;3.40;;;;;;;;;;5022219;28;20589;-74
2021/09/23 11:43:38;;;;;;;8.35;2.83;;;;;;;;;;5030250;28;20197;-70
2021/09/23 11:46:04;;;;;;;8.32;2.83;;;;;;;;;;5020790;28;20198;-71
2021/09/23 11:48:36;;;;;;;6.75;2.47;;;;;;;;;;5031746;28;20200;-71
2021/09/23 11:51:06;;;;;;;10.50;3.13;;;;;;;;;;5028385;28;20204;-70
2021/09/23 11:53:34;;;;;;;6.68;2.70;;;;;;;;;;5022220;28;20205;-72
2021/09/23 11:56:04;;;;;;;7.78;2.90;;;;;;;;;;5032758;28;20201;-70
2021/09/23 11:58:31;;;;;;;6.78;2.50;;;;;;;;;;5023428;28;20552;-71
2021/09/23 12:00:57;;;;;;;6.85;2.83;;;;;;;;;;5031291;28;20851;-71
2021/09/23 12:03:23;;;;;;;6.85;2.60;;;;;;;;;;5023106;28;20194;-72
2021/09/23 12:05:50;;;;;;;6.57;2.63;;;;;;;;;;5034023;28;20181;-71
2021/09/23 12:08:23;;;;;;;4.55;2.30;;;;;;;;;;5019828;28;20195;-71
2021/09/23 12:10:55;;;;;;;4.00;2.33;;;;;;;;;;5029501;28;20189;-73
2021/09/23 12:13:30;;;;;;;6.78;2.50;;;;;;;;;;5021877;28;20317;-72
2021/09/23 12:15:57;;;;;;;5.18;2.30;;;;;;;;;;5030235;28;20595;-71
2021/09/23 12:18:24;;;;;;;8.18;2.60;;;;;;;;;;5021770;28;20271;-70
2021/09/23 12:20:52;;;;;;;6.80;2.65;;;;;;;;;;5029989;28;20300;-71
2021/09/23 12:23:28;;;;;;;6.43;2.30;;;;;;;;;;5023453;28;20197;-71
2021/09/23 12:26:04;;;;;;;5.50;2.33;;;;;;;;;;5029421;28;20206;-71
2021/09/23 12:28:30;;;;;;;6.28;2.78;;;;;;;;;;5019031;28;20501;-71
2021/09/23 12:31:05;;;;;;;6.53;2.47;;;;;;;;;;5030081;28;20190;-71
2021/09/23 12:33:31;;;;;;;6.75;2.63;;;;;;;;;;5022520;28;20651;-72
2021/09/23 12:36:16;;;;;;;5.00;2.25;;;;;;;;;;5021975;28;20182;-72
2021/09/23 12:38:45;;;;;;;7.63;2.83;;;;;;;;;;5032064;28;20675;-72
2021/09/23 12:41:37;;;;;;;7.30;2.70;;;;;;;;;;5021458;28;20182;-72
2021/09/23 12:44:05;;;;;;;5.93;2.78;;;;;;;;;;5020868;28;20287;-71
2021/09/23 12:46:31;;;;;;;6.40;2.75;;;;;;;;;;5024085;28;20192;-72
2021/09/23 12:49:17;;;;;;;5.18;2.50;;;;;;;;;;5032899;28;20193;-71
2021/09/23 12:51:45;;;;;;;4.80;2.30;;;;;;;;;;5019827;28;20185;-72
2021/09/23 12:54:22;;;;;;;5.28;2.60;;;;;;;;;;5029709;28;20673;-72
2021/09/23 12:57:01;;;;;;;7.72;2.60;;;;;;;;;;5018117;28;20257;-71
2021/09/23 12:59:29;;;;;;;10.27;2.50;;;;;;;;;;5028881;28;20312;-71
2021/09/23 13:02:07;;;;;;;10.40;2.45;;;;;;;;;;5023644;28;20247;-73
2021/09/23 13:04:33;;;;;;;6.78;2.50;;;;;;;;;;5030795;28;20226;-72
2021/09/23 13:06:58;;;;;;;5.60;2.50;;;;;;;;;;5019317;28;20194;-73
2021/09/23 13:09:24;;;;;;;8.18;2.70;;;;;;;;;;5028096;28;20325;-70
2021/09/23 13:11:49;;;;;;;8.55;2.78;;;;;;;;;;5018847;28;20208;-72
2021/09/23 13:14:26;;;;;;;6.55;2.60;;;;;;;;;;5028535;28;20208;-72
2021/09/23 13:16:52;;;;;;;8.02;2.90;;;;;;;;;;5021649;28;20218;-71
2021/09/23 13:19:19;;;;;;;8.93;2.50;;;;;;;;;;5030631;28;20185;-72
2021/09/23 13:21:46;;;;;;;8.88;2.45;;;;;;;;;;5019322;28;20526;-73
2021/09/23 13:24:13;;;;;;;5.40;2.47;;;;;;;;;;5028278;28;20190;-73
2021/09/23 13:26:44;;;;;;;5.10;1.95;;;;;;;;;;5020658;28;20981;-70
2021/09/23 13:29:09;;;;;;;8.30;2.20;;;;;;;;;;5028989;28;20274;-72
2021/09/23 13:31:37;;;;;;;6.18;2.38;;;;;;;;;;5027374;28;20565;-72
2021/09/23 13:34:02;;;;;;;6.75;2.50;;;;;;;;;;5020300;28;20586;-72
2021/09/23 13:36:28;;;;;;;7.25;1.83;;;;;;;;;;5029580;28;20193;-72
2021/09/23 13:38:55;;;;;;;11.27;1.98;;;;;;;;;;5021163;28;20194;-71
2021/09/23 13:41:23;;;;;;;6.57;1.95;;;;;;;;;;5026823;28;20189;-71
2021/09/23 13:43:49;;;;;;;9.02;1.90;;;;;;;;;;5018350;28;20247;-71
2021/09/23 13:46:14;;;;;;;6.57;2.20;;;;;;;;;;5029826;28;20181;-71
2021/09/23 13:48:39;;;;;;;6.07;2.15;;;;;;;;;;5019630;28;20259;-71
2021/09/23 13:51:06;;;;;;;5.85;2.15;;;;;;;;;;5029569;28;20276;-71
2021/09/23 13:53:31;;;;;;;3.95;1.83;;;;;;;;;;5018249;28;20271;-74
2021/09/23 13:55:57;;;;;;;6.40;2.00;;;;;;;;;;5029100;28;20200;-71
2021/09/23 13:58:24;;;;;;;8.68;2.28;;;;;;;;;;5019555;28;21898;-72
2021/09/23 14:00:49;;;;;;;4.25;2.08;;;;;;;;;;5027959;28;20229;-72
2021/09/23 14:03:16;;;;;;;5.03;2.00;;;;;;;;;;5023025;28;20221;-72
2021/09/23 14:05:42;;;;;;;4.85;2.20;;;;;;;;;;5024906;28;20221;-72
2021/09/23 14:08:08;;;;;;;7.07;1.80;;;;;;;;;;5026420;28;20259;-71
2021/09/23 14:10:33;;;;;;;8.35;1.73;;;;;;;;;;5017151;28;20194;-70
2021/09/23 14:12:59;;;;;;;5.40;1.67;;;;;;;;;;5028393;28;20193;-74
2021/09/23 14:15:24;;;;;;;10.50;2.30;;;;;;;;;;5021175;28;20196;-70
2021/09/23 14:17:51;;;;;;;5.97;1.65;;;;;;;;;;5029214;28;20377;-71
2021/09/23 14:20:16;;;;;;;4.13;1.50;;;;;;;;;;4326339;28;10000836;-71